EST,Max TemperatureF,Mean TemperatureF,Min TemperatureF,Max Dew PointF,MeanDew PointF,Min DewpointF,Max Humidity, Mean Humidity, Min Humidity, Max Sea Level PressureIn, Mean Sea Level PressureIn, Min Sea Level PressureIn, Max VisibilityMiles, Mean VisibilityMiles, Min VisibilityMiles, Max Wind SpeedMPH, Mean Wind SpeedMPH, Max Gust SpeedMPH,PrecipitationIn, CloudCover, Events, WindDirDegrees
2014-1-1,51,42,32,44,35,28,98,81,43,30.43,30.32,30.16,10,10,7,5,0,,0.06,3,Rain,88
2014-1-2,51,47,43,51,47,43,100,99,90,30.15,29.86,29.61,10,5,0,12,1,20,0.85,8,Rain,252
2014-1-3,47,36,25,46,17,9,89,52,32,30.46,30.18,29.67,10,10,10,24,10,33,0.00,1,,326
2014-1-4,43,32,22,32,24,14,87,69,56,30.51,30.42,30.26,10,10,10,7,0,,0.00,5,,28
2014-1-5,63,50,38,63,51,31,100,93,75,30.24,30.08,29.90,10,7,2,10,1,,0.58,7,Rain,155
2014-1-6,64,46,25,62,37,-5,95,66,26,30.20,29.86,29.70,10,10,3,23,13,31,0.03,5,Rain,262
2014-1-7,27,20,14,13,-1,-6,74,41,27,30.54,30.43,30.21,10,10,10,16,8,24,0.00,0,,292
2014-1-8,43,30,16,21,12,3,89,56,20,30.63,30.55,30.51,10,10,10,5,0,,0.00,0,,144
2014-1-9,57,41,25,38,27,17,84,60,40,30.58,30.51,30.45,10,10,1,5,0,,0.00,4,,80
2014-1-10,70,58,46,66,52,37,100,78,63,30.44,30.26,30.10,10,10,5,13,3,20,0.02,8,Rain,135
2014-1-11,75,66,56,66,62,55,100,92,71,30.09,29.84,29.69,10,9,4,18,8,31,0.53,7,Rain,197
2014-1-12,58,48,38,55,38,29,92,66,34,30.20,30.03,29.73,10,10,10,16,7,20,0.05,0,,268
2014-1-13,63,48,34,48,38,32,93,69,33,30.22,30.13,29.98,10,10,10,13,2,16,0.00,1,,182
2014-1-14,58,49,40,58,51,40,100,97,80,30.01,29.89,29.76,10,6,0,13,3,17,0.24,6,Fog-Rain,217
2014-1-15,59,48,36,50,41,35,100,82,43,29.99,29.92,29.85,10,7,0,9,3,,0.00,1,Fog,183
2014-1-16,45,38,31,36,32,26,91,78,49,30.07,29.98,29.90,10,10,10,9,5,,0.00,4,Rain,324
2014-1-17,58,44,30,43,32,23,92,66,38,30.09,29.99,29.88,10,10,10,14,5,17,0.00,1,,195
2014-1-18,48,38,27,42,18,11,77,48,31,30.09,30.01,29.87,10,10,10,16,8,28,0.00,2,,258
2014-1-19,55,42,30,32,26,20,78,55,34,30.07,30.00,29.94,10,10,10,12,5,17,0.00,2,Rain,223
2014-1-20,64,50,37,33,29,26,73,49,25,29.97,29.90,29.83,10,10,10,12,6,16,0.00,0,,219
2014-1-21,64,48,33,45,34,28,93,59,32,29.85,29.67,29.49,10,10,7,23,7,31,0.04,3,Rain,225
2014-1-22,36,29,22,28,17,7,85,60,30,30.13,29.99,29.80,10,10,4,12,5,16,0.04,3,,317
2014-1-23,40,30,20,19,15,8,83,59,26,30.37,30.24,30.10,10,10,5,8,2,16,0.00,0,,309
2014-1-24,28,22,15,14,0,-5,70,40,24,30.62,30.48,30.34,10,10,10,12,5,17,0.00,1,,341
2014-1-25,48,31,14,19,12,4,70,44,26,30.32,29.97,29.72,10,10,10,17,6,24,0.00,3,,213
2014-1-26,54,42,30,32,23,18,71,49,27,30.02,29.94,29.88,10,10,10,14,6,17,0.00,0,,210
2014-1-27,66,54,42,44,36,30,78,55,31,30.03,29.89,29.79,10,10,10,14,7,18,0.00,1,,210
2014-1-28,41,33,22,28,14,4,93,54,27,30.28,30.18,30.04,10,8,2,9,5,22,0.27,6,Rain-Snow,18
2014-1-29,28,23,18,20,16,14,93,77,59,30.38,30.28,30.14,10,8,1,9,3,,0.18,2,Snow,357
2014-1-30,36,25,14,23,16,8,93,66,42,30.43,30.33,30.22,10,10,10,5,0,,0.00,4,,20
2014-1-31,54,42,29,23,18,8,77,48,16,30.26,30.20,30.16,10,10,10,5,1,,0.00,2,,318